This is the latest recevied weather packets stored in our database for station/object HA3KHB-6. If no packets are shown the sender has not sent any weather packets the latest 10 day(s).
| Time | Temp. | Humidity | Pressure | Rain* | Wind** | Luminosity | Snow |
|---|---|---|---|---|---|---|---|
| 1777833319 | 15.56° C | 100% | - | - | - | - | - |
| 1777832719 | 16.11° C | 100% | - | - | - | - | - |
| 1777832119 | 16.67° C | 100% | - | - | - | - | - |
| 1777831519 | 16.67° C | 100% | - | - | - | - | - |
| 1777830918 | 17.22° C | 100% | 55.1 hPa | - | - | - | - |
| 1777830321 | 17.78° C | 100% | - | - | - | - | - |
| 1777829721 | 18.33° C | 98% | 51.9 hPa | - | - | - | - |
| 1777829121 | 19.44° C | 94% | 161.6 hPa | - | - | - | - |
| 1777828521 | 20° C | 90% | 278.5 hPa | - | - | - | - |
| 1777827921 | 20.56° C | 84% | 453.2 hPa | - | - | - | - |
| 1777827321 | 21.67° C | 78% | 652.8 hPa | - | - | - | - |
| 1777826721 | 22.78° C | 70% | 885.3 hPa | - | - | - | - |
| 1777826121 | 24.44° C | 64% | 956.6 hPa | - | - | - | - |
| 1777825520 | 24.44° C | 64% | 1007.9 hPa | - | - | - | - |
| 1777824920 | 26.11° C | 60% | 1027.7 hPa | - | - | - | - |
| 1777824321 | 27.22° C | 57% | 1101.6 hPa | - | - | - | - |
| 1777823720 | 30.56° C | 66% | 577.2 hPa | - | - | - | - |
| 1777823120 | 31.11° C | 54% | 921.8 hPa | - | - | - | - |
| 1777822520 | 31.67° C | 53% | 878.2 hPa | - | - | - | - |
| 1777821920 | 32.78° C | 57% | 665.1 hPa | - | - | - | - |
| 1777821320 | 32.22° C | 56% | 689.1 hPa | - | - | - | - |
| 1777820720 | 33.33° C | 58% | 542.2 hPa | - | - | - | - |
| 1777820120 | 32.78° C | 59% | 503.8 hPa | - | - | - | - |
| 1777819520 | 32.22° C | 61% | 465.4 hPa | - | - | - | - |
| 1777818919 | 31.67° C | 60% | 465.3 hPa | - | - | - | - |
* Rain since midnight (hover to see other rain measurements)
** Current wind speed in m/s (hover to see current wind gust speed)